Achille, Oklahoma
Current Conditions -  °F | °C
As of 3:15 AM on Thursday 27 Nov 2014 (Local Time) from KDUA Reporting Station
Clear Clear  
Wind Chill: 31°   Ceiling: Unl
Heat Index: 37°   Visibility: 10mi
Dew Point: 30°   Wind: 9mph
Humidity: 75%   Direction: 310°NW
Pressure: 30.49"   Gusts: NA
Location:  33.83°N, 96.39°W
Report Text: KDUA 270915Z AUTO 31008KT 240V010 10SM CLR 03/M01 A3049 RMK AO2
Loading
Personal Weather Stations






























Interactive Weather Map New forecast layout! Learn more

10-Day Weather Forecast

Advertisements
Track Severe Weather on mobile